createdAt,value
2022-09-03T00:00:54.734Z,0.50
2022-09-03T00:06:03.490Z,1.10
2022-09-03T00:11:14.456Z,0.60
2022-09-03T00:16:27.440Z,1.00
2022-09-03T00:21:36.863Z,0.73
2022-09-03T00:26:42.819Z,0.90
2022-09-03T00:32:00.581Z,0.60
2022-09-03T00:37:00.707Z,0.77
2022-09-03T00:42:15.384Z,1.05
2022-09-03T00:47:22.604Z,0.40
2022-09-03T00:52:36.859Z,0.60
2022-09-03T00:57:47.930Z,0.28
2022-09-03T01:02:58.834Z,0.50
2022-09-03T01:08:08.193Z,0.90
2022-09-03T01:13:13.138Z,1.70
2022-09-03T01:18:24.806Z,0.40
2022-09-03T01:23:57.346Z,0.73
2022-09-03T01:29:07.015Z,0.40
2022-09-03T01:34:16.705Z,0.77
2022-09-03T01:39:32.563Z,0.63
2022-09-03T01:44:58.042Z,0.85
2022-09-03T01:50:07.147Z,0.70
2022-09-03T01:55:25.071Z,0.40
2022-09-03T02:00:27.912Z,0.50
2022-09-03T02:05:29.790Z,1.30
2022-09-03T02:10:36.261Z,0.65
2022-09-03T02:15:49.687Z,1.10
2022-09-03T02:20:52.316Z,0.90
2022-09-03T02:25:56.149Z,0.50
2022-09-03T02:30:57.113Z,0.85
2022-09-03T02:36:09.636Z,0.30
2022-09-03T02:41:23.810Z,0.52
2022-09-03T02:46:33.821Z,0.85
2022-09-03T02:51:51.505Z,0.60
2022-09-03T02:56:52.880Z,0.35
2022-09-03T03:01:51.154Z,0.95
2022-09-03T03:07:25.823Z,0.13
2022-09-03T03:12:24.764Z,1.75
2022-09-03T03:17:27.942Z,0.73
2022-09-03T03:22:49.799Z,0.32
2022-09-03T03:28:03.978Z,1.08
2022-09-03T03:33:55.906Z,0.63
2022-09-03T04:45:11.445Z,1.38
2022-09-03T04:51:13.577Z,1.08
2022-09-03T04:57:55.142Z,1.40
2022-09-03T05:04:02.504Z,6.57
2022-09-03T05:10:36.521Z,6.97
2022-09-03T05:15:58.138Z,6.63
2022-09-03T05:27:34.760Z,5.75
2022-09-03T05:33:09.546Z,6.13
2022-09-03T05:38:39.576Z,5.18
2022-09-03T05:43:55.656Z,5.10
2022-09-03T05:54:48.183Z,4.30
2022-09-03T06:00:19.581Z,5.93
2022-09-03T06:05:44.778Z,7.47
2022-09-03T06:16:41.224Z,5.57
2022-09-03T06:22:10.924Z,6.65
2022-09-03T06:27:59.526Z,5.60
2022-09-03T06:33:22.501Z,5.78
2022-09-03T06:38:42.368Z,5.45
2022-09-03T06:49:43.024Z,5.93
2022-09-03T06:54:56.554Z,5.53
2022-09-03T07:00:09.200Z,6.25
2022-09-03T07:11:13.460Z,5.93
2022-09-03T07:17:14.660Z,6.22
2022-09-03T07:35:45.553Z,5.37
2022-09-03T07:42:00.439Z,5.45
2022-09-03T07:54:46.819Z,5.72
2022-09-03T09:53:01.440Z,4.00
2022-09-03T12:09:51.036Z,3.55
2022-09-03T12:15:01.931Z,3.10
2022-09-03T12:20:15.391Z,3.40
2022-09-03T12:25:15.130Z,2.80
2022-09-03T12:30:17.813Z,2.75
2022-09-03T12:46:37.355Z,5.00
2022-09-03T12:52:03.157Z,3.58
2022-09-03T12:57:08.607Z,3.40
2022-09-03T13:07:44.714Z,4.25
2022-09-03T13:13:29.382Z,3.05
2022-09-03T13:18:34.728Z,2.65
2022-09-03T13:23:48.122Z,6.80
2022-09-03T13:29:30.251Z,5.70
2022-09-03T13:35:18.525Z,4.07
2022-09-03T13:40:23.671Z,3.08
2022-09-03T13:45:32.488Z,3.78
2022-09-03T13:51:05.350Z,2.90
2022-09-03T13:56:17.281Z,4.90
2022-09-03T14:01:23.137Z,4.45
2022-09-03T14:06:51.338Z,3.90
2022-09-03T14:12:05.683Z,3.92
2022-09-03T14:17:15.238Z,4.40
2022-09-03T14:22:19.338Z,5.25
2022-09-03T14:27:34.371Z,4.50
2022-09-03T14:32:56.389Z,4.70
2022-09-03T14:38:45.962Z,4.57
2022-09-03T14:44:16.698Z,5.18
2022-09-03T14:49:32.823Z,5.15
2022-09-03T14:54:59.905Z,5.40
2022-09-03T15:00:05.386Z,7.90
2022-09-03T15:05:52.429Z,5.28
2022-09-03T15:10:56.786Z,5.88
2022-09-03T15:16:17.686Z,5.93
2022-09-03T15:21:26.602Z,5.28
2022-09-03T15:27:11.621Z,5.97
2022-09-03T15:32:47.020Z,6.00
2022-09-03T15:38:20.262Z,5.55
2022-09-03T15:43:24.233Z,5.65
2022-09-03T15:48:31.453Z,5.47
2022-09-03T15:54:05.593Z,5.88
2022-09-03T15:59:12.355Z,5.80
2022-09-03T16:04:22.334Z,4.80
2022-09-03T16:09:29.977Z,5.20
2022-09-03T16:14:38.914Z,4.63
2022-09-03T16:19:48.167Z,6.20
2022-09-03T16:24:51.075Z,6.05
2022-09-03T16:30:09.077Z,5.18
2022-09-03T16:35:22.879Z,5.72
2022-09-03T16:40:29.009Z,5.70
2022-09-03T16:45:35.333Z,7.00
2022-09-03T16:50:56.643Z,6.63
2022-09-03T16:56:13.440Z,6.53
2022-09-03T17:01:22.129Z,6.40
2022-09-03T17:06:35.523Z,6.20
2022-09-03T17:12:14.909Z,6.35
2022-09-03T17:17:32.614Z,5.60
2022-09-03T17:23:06.402Z,5.75
2022-09-03T17:28:25.082Z,5.05
2022-09-03T17:33:54.953Z,6.45
2022-09-03T17:39:24.017Z,5.80
2022-09-03T17:44:53.167Z,5.47
2022-09-03T17:49:55.738Z,6.22
2022-09-03T17:54:57.301Z,6.93
2022-09-03T18:00:26.827Z,5.43
2022-09-03T18:05:44.432Z,6.00
2022-09-03T18:10:50.302Z,7.70
2022-09-03T18:15:53.700Z,6.35
2022-09-03T18:21:31.776Z,7.38
2022-09-03T18:26:55.361Z,8.13
2022-09-03T18:32:10.611Z,6.90
2022-09-03T18:37:26.884Z,6.82
2022-09-03T18:42:56.075Z,6.38
2022-09-03T18:48:22.349Z,6.35
2022-09-03T18:53:51.245Z,6.47
2022-09-03T18:59:25.236Z,6.60
2022-09-03T19:04:54.089Z,6.60
2022-09-03T19:10:20.084Z,4.85
2022-09-03T19:15:41.906Z,6.25
2022-09-03T19:21:16.565Z,5.47
2022-09-03T19:26:41.951Z,5.47
2022-09-03T19:32:03.268Z,6.35
2022-09-03T19:37:26.548Z,5.88
2022-09-03T19:42:58.517Z,4.93
2022-09-03T19:48:28.799Z,6.20
2022-09-03T19:53:45.895Z,5.47
2022-09-03T19:59:07.975Z,5.78
2022-09-03T20:04:30.921Z,6.47
2022-09-03T20:09:50.284Z,6.60
2022-09-03T20:14:48.622Z,6.40
2022-09-03T20:20:00.091Z,6.75
2022-09-03T20:25:20.701Z,6.20
2022-09-03T20:30:20.546Z,6.15
2022-09-03T20:35:33.252Z,6.60
2022-09-03T20:40:42.728Z,6.75
2022-09-03T20:45:58.422Z,6.78
2022-09-03T20:51:07.371Z,7.53
2022-09-03T20:56:16.071Z,6.78
2022-09-03T21:01:22.843Z,6.38
2022-09-03T21:06:30.814Z,5.45
2022-09-03T21:11:35.434Z,6.03
2022-09-03T21:16:44.121Z,6.45
2022-09-03T21:21:54.117Z,6.70
2022-09-03T21:26:56.968Z,6.68
2022-09-03T21:32:03.871Z,6.45
2022-09-03T21:37:04.158Z,6.18
2022-09-03T21:42:06.500Z,5.60
2022-09-03T21:47:08.925Z,6.13
2022-09-03T21:52:11.937Z,6.32
2022-09-03T21:57:22.275Z,6.05
2022-09-03T22:02:26.649Z,6.85
2022-09-03T22:07:37.400Z,7.28
2022-09-03T22:12:42.518Z,6.57
2022-09-03T22:17:48.018Z,6.72
2022-09-03T22:22:55.914Z,6.32
2022-09-03T22:28:00.975Z,7.38
2022-09-03T22:33:06.781Z,6.93
2022-09-03T22:38:26.348Z,6.63
2022-09-03T22:43:38.993Z,7.00
2022-09-03T22:49:11.327Z,6.88
2022-09-03T22:54:24.284Z,7.68
2022-09-03T22:59:28.150Z,8.35
2022-09-03T23:04:30.019Z,6.85
2022-09-03T23:09:37.798Z,8.18
2022-09-03T23:14:48.153Z,9.07
2022-09-03T23:19:49.741Z,8.30
2022-09-03T23:24:54.266Z,7.80
2022-09-03T23:29:57.211Z,7.83
2022-09-03T23:34:55.507Z,8.52
2022-09-03T23:40:13.469Z,8.05
2022-09-03T23:45:21.669Z,9.60
2022-09-03T23:50:28.988Z,9.65
2022-09-03T23:55:41.782Z,9.80
